logo
Search for airport 
image banner adimage banner adimage banner ad
image banner ad

FMNF - Befandriana/Avaratra

Located in , Madagascar

ICAO - FMNF, IATA - WBD

Data provided by Airmate  

General information

Coordinates: S15°12'0" E48°29'0"
Elevation is 820 feet MSL.
 
View others Airports in Mahajanga

Operational data

Special qualification required
Current time UTC:
Current local time:
Weather at : - ( 0 km )
METAR: TJBQ 281150Z 00000KT 10SM SCT014 BKN021 OVC027 23/22 A3007
View NOTAMs / SUP AIP / TFR affecting this airport [VIEW]
Communications frequencies: [VIEW]

Runways:

Airport contact information

Address: Madagascar

Satellite view of FMNF